Time;durP1;ratioP1;P1;durP2;ratioP2;P2;SDS_P1;SDS_P2;PMS_P1;PMS_P2;Temp;Humidity;BMP_temperature;BMP_pressure;BME280_temperature;BME280_humidity;BME280_pressure;Samples;Min_cycle;Max_cycle;Signal;HPM_P1;HPM_P2
2022/08/01 00:58:18;;;;;;;6.05;4.30;;;;;;;;;;6207890;22;20207;-90
2022/08/01 01:01:23;;;;;;;8.48;4.18;;;;;;;;;;6229795;23;20147;-89
2022/08/01 01:04:30;;;;;;;8.43;4.25;;;;;;;;;;6230715;23;20210;-88
2022/08/01 01:07:38;;;;;;;6.32;4.13;;;;;;;;;;6230839;23;20168;-89
2022/08/01 01:10:47;;;;;;;6.13;4.40;;;;;;;;;;6232604;23;20171;-87
2022/08/01 01:13:58;;;;;;;9.10;4.30;;;;;;;;;;6237344;23;20238;-90
2022/08/01 01:17:05;;;;;;;6.18;4.30;;;;;;;;;;6233408;23;20167;-90
2022/08/01 01:20:13;;;;;;;7.50;4.25;;;;;;;;;;6231694;23;20186;-89
2022/08/01 01:23:28;;;;;;;9.48;5.00;;;;;;;;;;6231449;23;20299;-89
2022/08/01 01:26:38;;;;;;;8.82;4.53;;;;;;;;;;6230902;23;20220;-89
2022/08/01 01:29:48;;;;;;;8.75;4.15;;;;;;;;;;6230516;23;20170;-89
2022/08/01 01:32:54;;;;;;;8.35;4.13;;;;;;;;;;6229531;23;20155;-89
2022/08/01 01:36:02;;;;;;;8.95;4.60;;;;;;;;;;6230110;23;20619;-89
2022/08/01 01:39:08;;;;;;;6.18;4.43;;;;;;;;;;6228032;23;20203;-88
2022/08/01 01:42:18;;;;;;;9.73;4.78;;;;;;;;;;6228709;23;20179;-90
2022/08/01 01:45:26;;;;;;;11.15;4.93;;;;;;;;;;6229132;23;20171;-90
2022/08/01 01:48:36;;;;;;;5.53;4.60;;;;;;;;;;6227374;23;20248;-91
2022/08/01 01:51:43;;;;;;;7.65;4.45;;;;;;;;;;6227966;23;20233;-89
2022/08/01 01:54:50;;;;;;;4.93;4.13;;;;;;;;;;6230256;23;20163;-90
2022/08/01 01:57:56;;;;;;;10.15;4.30;;;;;;;;;;6216808;23;20190;-89
2022/08/01 02:01:06;;;;;;;9.43;4.47;;;;;;;;;;6199917;23;20187;-89
2022/08/01 02:04:12;;;;;;;9.02;4.18;;;;;;;;;;6198359;23;20260;-89
2022/08/01 02:07:21;;;;;;;8.32;4.20;;;;;;;;;;6199678;23;20616;-89
2022/08/01 02:10:26;;;;;;;6.18;4.05;;;;;;;;;;6200549;23;20176;-90
2022/08/01 02:13:32;;;;;;;9.98;4.45;;;;;;;;;;6198643;23;20183;-90
2022/08/01 02:16:41;;;;;;;6.72;4.20;;;;;;;;;;6197248;23;20168;-89
2022/08/01 02:19:46;;;;;;;6.55;4.10;;;;;;;;;;6197512;23;20203;-88
2022/08/01 02:22:54;;;;;;;7.07;3.95;;;;;;;;;;6216753;23;20171;-91
2022/08/01 02:26:00;;;;;;;8.23;4.32;;;;;;;;;;6197558;23;20168;-88
2022/08/01 02:29:08;;;;;;;6.47;3.95;;;;;;;;;;6200685;23;20159;-89
2022/08/01 02:32:21;;;;;;;9.88;4.38;;;;;;;;;;6216085;22;20284;-90
2022/08/01 02:35:28;;;;;;;9.05;4.45;;;;;;;;;;6198815;23;20168;-90
2022/08/01 02:38:34;;;;;;;9.43;4.60;;;;;;;;;;6200996;23;20248;-89
2022/08/01 02:41:41;;;;;;;7.68;4.60;;;;;;;;;;6199946;23;20220;-90
2022/08/01 02:44:46;;;;;;;7.93;4.30;;;;;;;;;;6201287;23;20175;-90
2022/08/01 02:47:55;;;;;;;11.50;4.68;;;;;;;;;;6199725;23;20578;-89
2022/08/01 02:51:02;;;;;;;11.27;4.88;;;;;;;;;;6199224;23;20159;-91
2022/08/01 02:54:08;;;;;;;8.75;4.68;;;;;;;;;;6201312;23;20144;-90
2022/08/01 02:57:14;;;;;;;9.45;4.80;;;;;;;;;;6206163;23;20190;-90
2022/08/01 03:00:19;;;;;;;5.85;4.40;;;;;;;;;;6229989;23;20273;-91
2022/08/01 03:03:26;;;;;;;7.50;4.35;;;;;;;;;;6230751;23;20171;-90
2022/08/01 03:06:33;;;;;;;10.75;4.55;;;;;;;;;;6229174;23;20187;-89
2022/08/01 03:09:39;;;;;;;8.70;4.55;;;;;;;;;;6212295;23;20195;-90
2022/08/01 03:12:45;;;;;;;9.27;4.68;;;;;;;;;;6230904;23;20170;-89
2022/08/01 03:15:51;;;;;;;6.63;4.55;;;;;;;;;;6230283;23;20155;-91
2022/08/01 03:18:58;;;;;;;10.23;4.82;;;;;;;;;;6229515;23;20198;-90
2022/08/01 03:22:07;;;;;;;10.73;5.10;;;;;;;;;;6228890;22;20179;-89
2022/08/01 03:25:13;;;;;;;12.80;4.90;;;;;;;;;;6227715;23;20200;-90
2022/08/01 03:28:19;;;;;;;11.15;5.10;;;;;;;;;;6229252;23;20151;-89
2022/08/01 03:31:26;;;;;;;7.03;4.32;;;;;;;;;;6228679;23;20166;-91
2022/08/01 03:34:32;;;;;;;7.93;4.50;;;;;;;;;;6228581;23;20166;-89
2022/08/01 03:37:42;;;;;;;10.40;4.47;;;;;;;;;;6227960;23;20167;-91
2022/08/01 03:40:49;;;;;;;6.88;4.38;;;;;;;;;;6226892;23;20199;-89
2022/08/01 03:43:57;;;;;;;6.70;4.50;;;;;;;;;;6228498;23;20194;-89
2022/08/01 03:47:04;;;;;;;11.73;4.95;;;;;;;;;;6229304;23;20240;-89
2022/08/01 03:50:15;;;;;;;8.45;4.75;;;;;;;;;;6229736;23;20231;-89
2022/08/01 03:53:24;;;;;;;9.38;5.00;;;;;;;;;;6228421;23;20612;-90
2022/08/01 03:56:31;;;;;;;6.57;4.50;;;;;;;;;;6228443;23;20167;-88
2022/08/01 03:59:37;;;;;;;6.63;4.72;;;;;;;;;;6230694;23;20175;-90
2022/08/01 04:02:44;;;;;;;8.63;4.97;;;;;;;;;;6229471;23;20202;-89
2022/08/01 04:05:51;;;;;;;8.95;4.63;;;;;;;;;;6231048;23;20289;-91
2022/08/01 04:08:58;;;;;;;10.07;4.72;;;;;;;;;;6229555;22;20496;-91
2022/08/01 04:12:04;;;;;;;7.85;4.63;;;;;;;;;;6228445;23;20216;-90
2022/08/01 04:15:09;;;;;;;10.93;4.93;;;;;;;;;;6228397;23;20159;-90
2022/08/01 04:18:15;;;;;;;7.38;4.80;;;;;;;;;;6230228;23;20226;-90
2022/08/01 04:21:24;;;;;;;6.22;4.45;;;;;;;;;;6210543;23;20306;-89
2022/08/01 04:24:32;;;;;;;10.13;4.22;;;;;;;;;;6229469;23;20599;-90
2022/08/01 04:27:39;;;;;;;8.35;4.65;;;;;;;;;;6228376;23;20232;-90
2022/08/01 04:30:46;;;;;;;11.02;5.20;;;;;;;;;;6228821;23;20603;-90
2022/08/01 04:33:52;;;;;;;6.43;4.47;;;;;;;;;;6213017;23;20228;-90
2022/08/01 04:37:00;;;;;;;10.93;4.68;;;;;;;;;;6229342;23;20542;-89
2022/08/01 04:40:07;;;;;;;9.43;4.80;;;;;;;;;;6230770;23;20277;-90
2022/08/01 04:43:13;;;;;;;7.95;5.03;;;;;;;;;;6227721;23;20170;-89
2022/08/01 04:46:19;;;;;;;9.90;5.90;;;;;;;;;;6210317;23;20179;-89
2022/08/01 04:49:24;;;;;;;8.10;4.80;;;;;;;;;;6228141;23;20211;-90
2022/08/01 04:52:35;;;;;;;6.50;4.45;;;;;;;;;;6228643;23;20175;-89
2022/08/01 04:55:42;;;;;;;8.32;5.20;;;;;;;;;;6228622;23;20240;-89
2022/08/01 04:58:47;;;;;;;11.18;4.53;;;;;;;;;;6215666;22;20604;-90
2022/08/01 05:01:52;;;;;;;12.32;6.10;;;;;;;;;;6199574;23;20151;-89
2022/08/01 05:04:58;;;;;;;9.82;4.72;;;;;;;;;;6198543;23;20244;-90
2022/08/01 05:08:05;;;;;;;9.90;4.38;;;;;;;;;;6199028;23;20167;-89
2022/08/01 05:11:11;;;;;;;9.30;4.72;;;;;;;;;;6198776;23;20225;-90
2022/08/01 05:14:16;;;;;;;8.73;4.45;;;;;;;;;;6197599;23;20228;-90
2022/08/01 05:17:21;;;;;;;7.90;4.50;;;;;;;;;;6197449;23;20164;-90
2022/08/01 05:20:27;;;;;;;13.77;4.78;;;;;;;;;;6197353;23;20281;-88
2022/08/01 05:23:34;;;;;;;8.50;4.57;;;;;;;;;;6199274;23;20152;-88
2022/08/01 05:26:40;;;;;;;7.35;4.60;;;;;;;;;;6197556;23;20168;-90
2022/08/01 05:29:45;;;;;;;11.13;4.68;;;;;;;;;;6199347;23;20655;-88
2022/08/01 05:32:51;;;;;;;10.07;4.60;;;;;;;;;;6198418;23;20178;-90
2022/08/01 05:35:56;;;;;;;7.32;4.07;;;;;;;;;;6200035;23;20164;-90
2022/08/01 05:39:03;;;;;;;6.90;4.40;;;;;;;;;;6200549;23;20201;-90
2022/08/01 05:42:09;;;;;;;11.02;5.15;;;;;;;;;;6200794;23;20163;-90
2022/08/01 05:49:04;;;;;;;8.95;4.30;;;;;;;;;;6222135;22;20176;-88
2022/08/01 05:52:09;;;;;;;8.13;4.80;;;;;;;;;;6201101;23;20164;-88
2022/08/01 05:55:15;;;;;;;9.48;4.57;;;;;;;;;;6200735;23;20167;-90
2022/08/01 05:58:20;;;;;;;10.48;4.40;;;;;;;;;;6201737;23;20246;-89
2022/08/01 06:01:25;;;;;;;8.60;4.93;;;;;;;;;;6200420;23;20204;-89
2022/08/01 06:04:30;;;;;;;7.15;4.82;;;;;;;;;;6218453;22;20177;-90
2022/08/01 06:07:36;;;;;;;10.20;4.95;;;;;;;;;;6200909;23;20173;-90
2022/08/01 06:10:43;;;;;;;8.13;4.45;;;;;;;;;;6220153;23;20164;-91
2022/08/01 06:13:49;;;;;;;6.30;4.65;;;;;;;;;;6202905;23;20175;-89
2022/08/01 06:16:55;;;;;;;8.05;4.35;;;;;;;;;;6184358;22;20203;-91
2022/08/01 06:20:00;;;;;;;13.90;4.75;;;;;;;;;;6213522;23;20645;-89
2022/08/01 06:23:06;;;;;;;6.85;5.22;;;;;;;;;;6212862;23;20167;-89
2022/08/01 06:26:12;;;;;;;6.72;3.92;;;;;;;;;;6213997;23;20239;-89
2022/08/01 06:29:17;;;;;;;8.90;4.20;;;;;;;;;;6214496;23;20171;-90
2022/08/01 06:32:24;;;;;;;10.02;3.85;;;;;;;;;;6214452;23;20223;-89
2022/08/01 06:35:29;;;;;;;6.85;4.20;;;;;;;;;;6215154;23;20167;-89
2022/08/01 06:38:35;;;;;;;9.60;3.90;;;;;;;;;;6214822;23;20242;-89
2022/08/01 06:41:45;;;;;;;6.25;3.50;;;;;;;;;;6213821;23;20167;-90
2022/08/01 06:45:03;;;;;;;6.75;3.17;;;;;;;;;;6215105;23;20147;-89
2022/08/01 06:48:11;;;;;;;6.68;3.53;;;;;;;;;;6214567;23;20230;-90
2022/08/01 06:51:19;;;;;;;6.03;3.17;;;;;;;;;;6214105;23;20219;-89
2022/08/01 06:54:24;;;;;;;8.02;3.05;;;;;;;;;;6231260;23;20206;-90
2022/08/01 06:57:31;;;;;;;5.05;3.35;;;;;;;;;;6213237;23;20152;-91
2022/08/01 07:00:36;;;;;;;6.75;3.20;;;;;;;;;;6213797;23;20269;-90
2022/08/01 07:03:48;;;;;;;7.07;3.25;;;;;;;;;;6215308;23;20244;-89
2022/08/01 07:06:53;;;;;;;29.77;5.72;;;;;;;;;;6217693;23;20163;-89
2022/08/01 07:09:59;;;;;;;16.08;4.05;;;;;;;;;;6215144;23;20187;-90
2022/08/01 07:13:06;;;;;;;12.73;3.95;;;;;;;;;;6213189;23;20163;-90
2022/08/01 07:16:11;;;;;;;11.63;3.00;;;;;;;;;;6214668;23;20151;-89
2022/08/01 07:36:55;;;;;;;5.82;2.70;;;;;;;;;;6221878;22;20196;-89
2022/08/01 07:40:03;;;;;;;4.88;2.65;;;;;;;;;;6231430;23;20198;-90
2022/08/01 07:43:09;;;;;;;10.80;2.90;;;;;;;;;;6230784;23;20179;-89
2022/08/01 07:46:14;;;;;;;7.25;2.70;;;;;;;;;;6230407;23;20511;-90
2022/08/01 07:49:21;;;;;;;5.25;2.78;;;;;;;;;;6229765;23;20175;-89
2022/08/01 07:52:28;;;;;;;5.13;2.47;;;;;;;;;;6229100;23;20155;-89
2022/08/01 07:55:33;;;;;;;8.98;2.50;;;;;;;;;;6211896;23;20173;-88
2022/08/01 07:58:38;;;;;;;6.35;2.90;;;;;;;;;;6231966;23;20166;-89
2022/08/01 08:01:44;;;;;;;7.97;2.63;;;;;;;;;;6231750;23;20661;-89
2022/08/01 08:04:49;;;;;;;5.00;2.95;;;;;;;;;;6214656;23;20190;-88
2022/08/01 08:07:56;;;;;;;7.47;2.97;;;;;;;;;;6230211;23;20203;-89
2022/08/01 08:11:02;;;;;;;9.40;2.80;;;;;;;;;;6215783;23;20186;-88
2022/08/01 08:14:07;;;;;;;4.55;2.55;;;;;;;;;;6229692;23;20166;-90
2022/08/01 08:17:13;;;;;;;5.53;2.90;;;;;;;;;;6230048;23;20216;-91
2022/08/01 08:20:18;;;;;;;8.88;2.78;;;;;;;;;;6232117;23;20242;-88
2022/08/01 08:26:54;;;;;;;4.97;2.67;;;;;;;;;;6230842;23;20183;-89
2022/08/01 08:29:59;;;;;;;6.68;2.67;;;;;;;;;;6231093;23;20225;-90
2022/08/01 08:33:04;;;;;;;5.20;2.80;;;;;;;;;;6239426;22;20216;-88
2022/08/01 08:36:10;;;;;;;4.53;2.85;;;;;;;;;;6230449;23;20181;-90
2022/08/01 08:39:18;;;;;;;4.20;2.72;;;;;;;;;;6212183;23;20225;-89
2022/08/01 08:42:24;;;;;;;4.25;2.83;;;;;;;;;;6229846;23;20239;-89
2022/08/01 08:46:01;;;;;;;4.53;2.67;;;;;;;;;;6229899;23;20179;-89
2022/08/01 08:49:06;;;;;;;11.25;3.40;;;;;;;;;;6230238;23;20162;-90
2022/08/01 08:52:12;;;;;;;6.72;2.65;;;;;;;;;;6232423;23;20257;-89
2022/08/01 08:55:19;;;;;;;5.53;2.53;;;;;;;;;;6229920;23;20245;-89
2022/08/01 08:58:27;;;;;;;3.90;2.50;;;;;;;;;;6216399;23;20170;-90
2022/08/01 09:01:34;;;;;;;4.75;2.40;;;;;;;;;;6231145;23;20197;-90
2022/08/01 09:04:40;;;;;;;5.43;2.60;;;;;;;;;;6233766;23;20171;-87
2022/08/01 09:51:48;;;;;;;5.55;1.80;;;;;;;;;;6195853;22;20215;-90
2022/08/01 09:54:55;;;;;;;3.33;1.70;;;;;;;;;;6210996;23;20171;-89
2022/08/01 11:08:25;;;;;;;5.22;1.80;;;;;;;;;;6241785;23;20285;-89
2022/08/01 11:35:34;;;;;;;7.57;2.30;;;;;;;;;;6179449;23;20156;-90
2022/08/01 11:38:39;;;;;;;15.48;2.80;;;;;;;;;;6161592;23;20188;-89
2022/08/01 11:41:46;;;;;;;17.48;2.10;;;;;;;;;;6150611;23;20531;-90
2022/08/01 11:44:55;;;;;;;11.73;2.45;;;;;;;;;;6150159;23;20208;-89
2022/08/01 11:48:19;;;;;;;7.53;2.00;;;;;;;;;;6148367;23;20237;-90
2022/08/01 11:51:25;;;;;;;7.30;1.90;;;;;;;;;;6149137;23;20168;-90
2022/08/01 11:54:31;;;;;;;6.32;1.98;;;;;;;;;;6167414;23;20267;-90
2022/08/01 11:57:37;;;;;;;5.10;1.80;;;;;;;;;;6149153;23;20292;-90
2022/08/01 12:00:42;;;;;;;5.40;1.98;;;;;;;;;;6151089;23;20187;-89
2022/08/01 12:03:47;;;;;;;4.75;1.70;;;;;;;;;;6151855;23;20160;-90
2022/08/01 12:06:54;;;;;;;4.18;2.00;;;;;;;;;;6153379;23;20164;-90
2022/08/01 12:10:01;;;;;;;6.85;2.10;;;;;;;;;;6152346;23;20173;-90
2022/08/01 12:13:08;;;;;;;5.78;2.03;;;;;;;;;;6153792;23;20214;-90
2022/08/01 12:16:14;;;;;;;3.58;1.70;;;;;;;;;;6150062;23;20148;-89
2022/08/01 12:19:20;;;;;;;3.67;1.70;;;;;;;;;;6148221;23;20168;-90
2022/08/01 12:22:29;;;;;;;5.30;1.63;;;;;;;;;;6149571;23;20200;-90
2022/08/01 12:25:34;;;;;;;6.22;1.42;;;;;;;;;;6150750;23;20172;-89
2022/08/01 12:28:41;;;;;;;7.22;1.80;;;;;;;;;;6155613;23;20271;-89
2022/08/01 12:31:46;;;;;;;5.18;1.48;;;;;;;;;;6149319;23;20621;-88
2022/08/01 12:34:52;;;;;;;1.60;1.08;;;;;;;;;;6135435;23;20291;-88
2022/08/01 12:37:59;;;;;;;3.72;1.45;;;;;;;;;;6137846;23;20193;-88
2022/08/01 12:41:06;;;;;;;1.98;1.10;;;;;;;;;;6138775;23;20196;-89
2022/08/01 12:44:16;;;;;;;3.90;1.30;;;;;;;;;;6136464;23;20259;-89
2022/08/01 12:47:22;;;;;;;2.80;1.20;;;;;;;;;;6138480;23;20168;-88
2022/08/01 12:50:29;;;;;;;4.68;1.10;;;;;;;;;;6135061;23;20183;-88
2022/08/01 12:53:36;;;;;;;2.03;1.20;;;;;;;;;;6137390;23;20176;-89
2022/08/01 12:56:41;;;;;;;2.05;1.08;;;;;;;;;;6138033;23;20181;-91
2022/08/01 12:59:48;;;;;;;2.83;1.83;;;;;;;;;;6138985;23;20172;-90
2022/08/01 13:03:03;;;;;;;2.17;1.33;;;;;;;;;;6138920;23;20168;-90
2022/08/01 13:06:14;;;;;;;4.93;1.40;;;;;;;;;;6137103;23;20169;-90
2022/08/01 13:09:21;;;;;;;11.82;1.60;;;;;;;;;;6137552;23;20173;-89
2022/08/01 13:12:26;;;;;;;5.15;1.48;;;;;;;;;;6140758;23;20165;-89
2022/08/01 13:15:33;;;;;;;6.32;3.00;;;;;;;;;;6140491;23;20222;-89
2022/08/01 13:18:39;;;;;;;7.35;2.50;;;;;;;;;;6138909;23;20177;-88
2022/08/01 13:21:55;;;;;;;5.60;2.60;;;;;;;;;;6137234;23;20371;-90
2022/08/01 13:25:12;;;;;;;5.40;2.30;;;;;;;;;;6137704;23;20189;-90
2022/08/01 13:28:18;;;;;;;4.18;2.00;;;;;;;;;;6156262;23;20173;-89
2022/08/01 13:31:33;;;;;;;4.80;1.60;;;;;;;;;;6138792;23;20209;-89
2022/08/01 13:34:38;;;;;;;3.65;1.80;;;;;;;;;;6136179;23;20197;-90
2022/08/01 13:37:43;;;;;;;3.03;1.80;;;;;;;;;;6139195;23;20181;-89
2022/08/01 13:40:59;;;;;;;3.22;1.70;;;;;;;;;;6143029;23;20245;-88
2022/08/01 13:44:10;;;;;;;4.78;1.67;;;;;;;;;;6142996;23;20624;-90
2022/08/01 13:47:26;;;;;;;5.10;1.48;;;;;;;;;;6130274;23;20164;-91
2022/08/01 13:50:32;;;;;;;6.35;1.90;;;;;;;;;;6149718;23;20173;-93
2022/08/01 13:53:39;;;;;;;3.53;1.77;;;;;;;;;;6149734;23;20196;-91
2022/08/01 13:56:48;;;;;;;4.80;2.15;;;;;;;;;;6148274;23;20200;-89
2022/08/01 13:59:57;;;;;;;3.15;1.60;;;;;;;;;;6146849;23;20172;-91
2022/08/01 14:06:27;;;;;;;4.53;1.75;;;;;;;;;;6147520;23;20168;-90
2022/08/01 14:09:33;;;;;;;3.80;1.70;;;;;;;;;;6142515;23;20164;-90
2022/08/01 14:12:40;;;;;;;2.40;1.40;;;;;;;;;;6143858;23;20173;-90
2022/08/01 14:15:50;;;;;;;2.63;1.70;;;;;;;;;;6143927;23;20157;-91
2022/08/01 14:18:56;;;;;;;2.72;1.77;;;;;;;;;;6143876;23;20177;-93
2022/08/01 14:22:02;;;;;;;3.05;1.60;;;;;;;;;;6143611;23;20248;-92
2022/08/01 14:25:07;;;;;;;1.90;1.58;;;;;;;;;;6140861;23;20184;-90
2022/08/01 14:28:14;;;;;;;3.63;1.70;;;;;;;;;;6139227;23;20181;-91
2022/08/01 14:31:20;;;;;;;2.88;1.42;;;;;;;;;;6142967;23;20173;-91
2022/08/01 14:34:26;;;;;;;4.55;1.60;;;;;;;;;;6158104;23;20289;-90
2022/08/01 14:37:31;;;;;;;4.65;1.80;;;;;;;;;;6141586;23;20255;-91
2022/08/01 14:40:36;;;;;;;5.55;2.08;;;;;;;;;;6141546;23;20597;-90
2022/08/01 14:43:43;;;;;;;3.05;1.60;;;;;;;;;;6139272;23;20167;-90
2022/08/01 14:50:55;;;;;;;6.60;1.60;;;;;;;;;;6145206;23;20225;-89
2022/08/01 14:54:02;;;;;;;4.18;1.60;;;;;;;;;;6146090;23;20169;-90
2022/08/01 15:00:27;;;;;;;2.50;1.50;;;;;;;;;;6140331;23;20172;-89
2022/08/01 15:03:32;;;;;;;4.10;1.50;;;;;;;;;;6139484;23;20267;-91
2022/08/01 15:06:43;;;;;;;4.32;2.90;;;;;;;;;;6141697;23;20179;-90
2022/08/01 15:09:48;;;;;;;4.18;1.38;;;;;;;;;;6141058;23;20285;-91
2022/08/01 15:12:53;;;;;;;3.60;1.60;;;;;;;;;;6139304;23;20169;-90
2022/08/01 15:16:02;;;;;;;2.97;1.45;;;;;;;;;;6140343;23;20641;-90
2022/08/01 15:19:07;;;;;;;5.07;1.10;;;;;;;;;;6142334;23;20193;-89
2022/08/01 15:22:13;;;;;;;6.88;1.60;;;;;;;;;;6144718;23;20520;-90
2022/08/01 15:25:18;;;;;;;2.83;1.20;;;;;;;;;;6143971;23;20244;-90
2022/08/01 15:28:24;;;;;;;3.20;1.30;;;;;;;;;;6143185;23;20169;-90
2022/08/01 15:31:36;;;;;;;3.70;1.40;;;;;;;;;;6144574;23;20160;-90
2022/08/01 15:34:42;;;;;;;6.53;1.27;;;;;;;;;;6145442;23;20213;-88
2022/08/01 15:37:51;;;;;;;2.90;1.50;;;;;;;;;;6144164;23;20494;-90
2022/08/01 15:40:56;;;;;;;3.42;1.20;;;;;;;;;;6144767;23;20168;-89
2022/08/01 15:44:01;;;;;;;2.38;1.23;;;;;;;;;;6142051;23;20196;-92
2022/08/01 15:47:08;;;;;;;1.92;1.33;;;;;;;;;;6140397;23;20158;-91
2022/08/01 15:50:14;;;;;;;7.43;1.60;;;;;;;;;;6141662;23;20173;-90
2022/08/01 15:53:19;;;;;;;2.38;1.10;;;;;;;;;;6140033;23;20625;-89
2022/08/01 15:56:27;;;;;;;7.00;1.55;;;;;;;;;;6138710;23;20173;-91
2022/08/01 15:59:32;;;;;;;1.70;1.13;;;;;;;;;;6140088;23;20153;-89
2022/08/01 16:02:38;;;;;;;4.97;1.42;;;;;;;;;;6136729;23;20196;-89
2022/08/01 16:05:44;;;;;;;6.40;1.38;;;;;;;;;;6136366;23;20168;-89
2022/08/01 16:08:49;;;;;;;4.07;1.33;;;;;;;;;;6137989;23;20598;-90
2022/08/01 16:11:54;;;;;;;2.13;1.10;;;;;;;;;;6139020;23;20177;-90
2022/08/01 16:14:59;;;;;;;2.80;1.05;;;;;;;;;;6138388;23;20239;-90
2022/08/01 16:18:06;;;;;;;5.70;1.98;;;;;;;;;;6137453;23;20169;-91
2022/08/01 16:21:12;;;;;;;5.43;1.33;;;;;;;;;;6140596;23;20174;-89
2022/08/01 16:24:18;;;;;;;6.97;1.45;;;;;;;;;;6139766;23;20169;-90
2022/08/01 16:27:23;;;;;;;3.15;1.50;;;;;;;;;;6139040;23;20637;-91
2022/08/01 16:30:28;;;;;;;4.00;1.60;;;;;;;;;;6138617;23;20161;-90
2022/08/01 16:33:35;;;;;;;2.45;1.02;;;;;;;;;;6138022;23;20843;-90
2022/08/01 16:36:40;;;;;;;4.00;1.40;;;;;;;;;;6137760;23;20160;-90
2022/08/01 16:39:48;;;;;;;6.32;1.33;;;;;;;;;;6137760;23;20206;-90
2022/08/01 16:42:52;;;;;;;3.25;1.25;;;;;;;;;;6156243;23;20652;-90
2022/08/01 16:45:57;;;;;;;7.28;1.67;;;;;;;;;;6137985;23;20173;-89
2022/08/01 16:49:05;;;;;;;2.63;1.65;;;;;;;;;;6140619;23;20173;-90
2022/08/01 16:52:10;;;;;;;7.45;2.00;;;;;;;;;;6137361;23;20625;-90
2022/08/01 16:55:17;;;;;;;6.43;2.35;;;;;;;;;;6140817;23;20153;-91
2022/08/01 16:58:23;;;;;;;3.47;2.08;;;;;;;;;;6140620;23;20662;-90
2022/08/01 17:01:28;;;;;;;6.65;2.42;;;;;;;;;;6140548;23;20678;-89
2022/08/01 17:04:35;;;;;;;3.60;2.05;;;;;;;;;;6136851;23;20169;-91
2022/08/01 17:07:41;;;;;;;5.97;2.30;;;;;;;;;;6140020;23;20209;-90
2022/08/01 17:10:47;;;;;;;5.22;1.75;;;;;;;;;;6139794;23;20205;-90
2022/08/01 17:13:52;;;;;;;4.57;1.63;;;;;;;;;;6140856;23;20184;-90
2022/08/01 17:16:57;;;;;;;3.20;1.77;;;;;;;;;;6141027;23;20173;-90
2022/08/01 17:20:08;;;;;;;4.22;1.63;;;;;;;;;;6143346;23;20196;-91
2022/08/01 17:23:28;;;;;;;3.13;1.73;;;;;;;;;;6146489;23;20201;-90
2022/08/01 17:26:33;;;;;;;3.22;1.83;;;;;;;;;;6145772;23;20173;-90
2022/08/01 17:29:39;;;;;;;2.58;1.77;;;;;;;;;;6142830;23;20678;-90
2022/08/01 17:32:46;;;;;;;4.05;1.80;;;;;;;;;;6145178;23;20613;-91
2022/08/01 17:35:53;;;;;;;3.28;1.90;;;;;;;;;;6156958;23;20172;-89
2022/08/01 17:39:01;;;;;;;4.93;2.17;;;;;;;;;;6157037;23;20176;-89
2022/08/01 17:42:06;;;;;;;4.88;2.00;;;;;;;;;;6158910;23;20179;-90
2022/08/01 17:56:35;;;;;;;5.88;1.85;;;;;;;;;;6196658;22;20260;-90
2022/08/01 17:59:42;;;;;;;4.72;1.98;;;;;;;;;;6219060;23;20191;-90
2022/08/01 18:02:50;;;;;;;6.68;1.90;;;;;;;;;;6216643;23;20713;-90
2022/08/01 18:06:00;;;;;;;3.60;1.80;;;;;;;;;;6234571;23;20150;-90
2022/08/01 18:53:17;;;;;;;5.18;1.85;;;;;;;;;;6202068;22;20192;-90
2022/08/01 18:56:22;;;;;;;6.55;2.17;;;;;;;;;;6232708;23;20171;-90
2022/08/01 18:59:28;;;;;;;2.40;1.80;;;;;;;;;;6214675;23;20166;-90
2022/08/01 19:02:34;;;;;;;3.17;2.00;;;;;;;;;;6231630;23;20186;-88
2022/08/01 19:05:39;;;;;;;7.18;2.13;;;;;;;;;;6231940;23;20162;-89
2022/08/01 19:08:46;;;;;;;2.95;2.10;;;;;;;;;;6213557;23;20167;-90
2022/08/01 19:11:51;;;;;;;4.13;1.98;;;;;;;;;;6215675;23;20163;-89
2022/08/01 19:14:56;;;;;;;6.43;2.28;;;;;;;;;;6212255;23;20155;-89
2022/08/01 19:18:02;;;;;;;5.82;2.20;;;;;;;;;;6231184;22;20166;-90
2022/08/01 19:21:07;;;;;;;5.90;1.90;;;;;;;;;;6230447;23;20290;-90
2022/08/01 19:24:17;;;;;;;4.60;1.98;;;;;;;;;;6228903;23;20230;-90
2022/08/01 19:27:25;;;;;;;5.10;2.20;;;;;;;;;;6233174;23;20175;-90
2022/08/01 19:30:33;;;;;;;2.72;1.90;;;;;;;;;;6232331;23;20168;-89
2022/08/01 19:33:39;;;;;;;4.13;2.08;;;;;;;;;;6213830;23;20830;-90
2022/08/01 19:36:46;;;;;;;4.53;2.00;;;;;;;;;;6232217;23;20159;-91
2022/08/01 19:39:53;;;;;;;6.47;4.25;;;;;;;;;;6213301;23;20291;-90
2022/08/01 19:43:00;;;;;;;6.80;2.33;;;;;;;;;;6231610;23;20174;-89
2022/08/01 19:46:07;;;;;;;3.60;2.25;;;;;;;;;;6214242;23;20171;-90
2022/08/01 19:49:13;;;;;;;2.92;1.90;;;;;;;;;;6232182;23;20155;-91
2022/08/01 19:52:23;;;;;;;4.22;2.00;;;;;;;;;;6213427;23;20851;-89
2022/08/01 19:55:30;;;;;;;4.07;1.98;;;;;;;;;;6211358;23;20302;-91
2022/08/01 19:58:39;;;;;;;3.17;2.20;;;;;;;;;;6229809;23;20179;-90
2022/08/01 20:01:44;;;;;;;5.13;2.40;;;;;;;;;;6231744;23;20187;-89
2022/08/01 20:04:50;;;;;;;4.15;2.28;;;;;;;;;;6230160;23;20495;-90
2022/08/01 20:07:56;;;;;;;4.45;2.05;;;;;;;;;;6230594;23;20167;-90
2022/08/01 20:11:05;;;;;;;3.88;2.33;;;;;;;;;;6213941;23;20206;-90
2022/08/01 20:14:12;;;;;;;3.90;2.00;;;;;;;;;;6231011;23;20187;-91
2022/08/01 20:17:17;;;;;;;3.17;2.08;;;;;;;;;;6232736;23;20273;-90
2022/08/01 20:20:23;;;;;;;7.30;2.20;;;;;;;;;;6213890;23;20223;-89
2022/08/01 20:23:30;;;;;;;5.57;2.20;;;;;;;;;;6234073;23;20199;-87
2022/08/01 20:26:41;;;;;;;4.50;2.40;;;;;;;;;;6234779;23;20155;-90
2022/08/01 20:29:56;;;;;;;4.25;1.90;;;;;;;;;;6218445;23;20167;-90
2022/08/01 20:33:02;;;;;;;6.13;2.20;;;;;;;;;;6235959;23;20163;-91
2022/08/01 20:36:08;;;;;;;4.75;2.05;;;;;;;;;;6235858;23;20175;-90
2022/08/01 20:39:17;;;;;;;13.43;2.20;;;;;;;;;;6236012;23;20158;-89
2022/08/01 20:42:28;;;;;;;6.75;2.10;;;;;;;;;;6236229;23;20187;-90
2022/08/01 21:25:27;;;;;;;6.90;1.70;;;;;;;;;;6252776;22;1387848;-89
2022/08/01 21:28:34;;;;;;;8.00;1.98;;;;;;;;;;6223201;23;20181;-90
2022/08/01 21:31:43;;;;;;;3.50;1.83;;;;;;;;;;6239059;23;20166;-90
2022/08/01 21:34:48;;;;;;;3.53;1.75;;;;;;;;;;6238470;23;20195;-90
2022/08/01 21:37:53;;;;;;;3.67;1.73;;;;;;;;;;6236663;23;20251;-90
2022/08/01 21:41:01;;;;;;;4.25;1.80;;;;;;;;;;6237359;23;20162;-89
2022/08/01 21:44:07;;;;;;;4.20;2.40;;;;;;;;;;6237353;23;20158;-90
2022/08/01 21:47:13;;;;;;;4.40;1.90;;;;;;;;;;6236889;23;20214;-90
2022/08/01 21:50:18;;;;;;;4.65;2.03;;;;;;;;;;6239459;23;20162;-91
2022/08/01 21:53:26;;;;;;;4.53;1.92;;;;;;;;;;6238663;23;20170;-91
2022/08/01 21:56:37;;;;;;;4.72;1.98;;;;;;;;;;6239281;23;20167;-89
2022/08/01 21:59:49;;;;;;;9.48;7.75;;;;;;;;;;6234813;23;20171;-90
2022/08/01 22:02:59;;;;;;;2.95;1.70;;;;;;;;;;6232590;23;20674;-91
2022/08/01 22:27:04;;;;;;;5.80;1.77;;;;;;;;;;6261730;22;20211;-89
2022/08/01 22:30:12;;;;;;;5.68;1.90;;;;;;;;;;6246056;23;20194;-90
2022/08/01 22:33:18;;;;;;;3.78;2.30;;;;;;;;;;6244632;23;20162;-90
2022/08/01 22:36:23;;;;;;;4.88;1.73;;;;;;;;;;6245986;22;20197;-90
2022/08/01 22:39:28;;;;;;;2.40;1.55;;;;;;;;;;6243150;22;20174;-89
2022/08/01 22:42:40;;;;;;;2.50;1.95;;;;;;;;;;6243680;23;20167;-89
2022/08/01 22:46:13;;;;;;;4.00;1.88;;;;;;;;;;6246451;23;20456;-90
2022/08/01 22:49:25;;;;;;;3.05;1.75;;;;;;;;;;6244861;22;20154;-90
2022/08/01 22:52:31;;;;;;;6.32;2.08;;;;;;;;;;6243657;22;20266;-90
2022/08/01 22:55:38;;;;;;;3.28;2.03;;;;;;;;;;6245400;23;20246;-90
2022/08/01 22:58:46;;;;;;;7.57;2.00;;;;;;;;;;6243145;23;20209;-92
2022/08/01 23:01:52;;;;;;;6.03;2.17;;;;;;;;;;6244047;22;20158;-90
2022/08/01 23:05:02;;;;;;;5.57;2.00;;;;;;;;;;6245078;22;20163;-89
2022/08/01 23:08:07;;;;;;;5.78;2.03;;;;;;;;;;6243581;22;20202;-90
2022/08/01 23:11:13;;;;;;;5.55;1.90;;;;;;;;;;6243521;23;20621;-90
2022/08/01 23:14:22;;;;;;;3.58;2.17;;;;;;;;;;6244573;22;20171;-91
2022/08/01 23:17:28;;;;;;;4.05;2.17;;;;;;;;;;6245732;22;20167;-90
2022/08/01 23:20:34;;;;;;;6.10;2.83;;;;;;;;;;6244046;23;20154;-89
2022/08/01 23:23:40;;;;;;;2.95;2.05;;;;;;;;;;6242716;22;20213;-90
2022/08/01 23:26:47;;;;;;;3.55;1.92;;;;;;;;;;6241736;23;20174;-91
2022/08/01 23:29:53;;;;;;;5.15;2.10;;;;;;;;;;6239947;23;20171;-91
2022/08/01 23:32:59;;;;;;;5.88;2.15;;;;;;;;;;6240529;23;20174;-90
2022/08/01 23:39:01;;;;;;;5.68;2.30;;;;;;;;;;6241957;22;20237;-90
2022/08/01 23:42:06;;;;;;;3.88;1.90;;;;;;;;;;6242179;22;20713;-91
2022/08/01 23:45:20;;;;;;;8.30;1.98;;;;;;;;;;6240955;23;20167;-89
2022/08/01 23:48:26;;;;;;;5.00;1.92;;;;;;;;;;6241828;23;20206;-91
2022/08/01 23:51:32;;;;;;;3.40;1.90;;;;;;;;;;6240616;23;20598;-90
2022/08/01 23:54:37;;;;;;;3.85;1.80;;;;;;;;;;6259538;22;20173;-91
2022/08/01 23:57:42;;;;;;;9.23;2.25;;;;;;;;;;6240810;23;20174;-91
